Flight Track Log - Related Links

Times and Time Zones

All times are in EDT time to prevent confusion due to time zone crossing. See the CHQ3058 flight status page for this flight to view local times or setup timezone preferences in your user account.

Time Position Orientation Groundspeed Altitude Reporting Facility
EDT Latitude Longitude Course Direction KTS MPH feet Rate Location/Type
Tue 04:16:58 PM 32.3711 -86.3947 52° Northeast 209 241 5,700  Level Atlanta Center
Tue 04:17:58 PM 32.4119 -86.3319 52° Northeast 241 277 7,900 2,050 Climbing Atlanta Center
Tue 04:18:58 PM 32.4572 -86.2592 54° Northeast 256 295 9,800 1,750 Climbing Atlanta Center
Tue 04:19:58 PM 32.5128 -86.1817 50° Northeast 272 313 11,400 1,600 Climbing Atlanta Center
Tue 04:20:58 PM 32.5664 -86.0944 54° Northeast 302 348 13,000 1,600 Climbing Atlanta Center
Tue 04:21:00 PM 32.6873 -85.8191 52° Northeast  Level FlightAware Approximate
Tue 04:21:58 PM 32.6242 -86.0094 51° Northeast 317 365 14,600  Level Atlanta Center
Tue 04:22:00 PM 32.7512 -85.7232 52° Northeast  Level FlightAware Approximate
Tue 04:22:58 PM 32.6819 -85.9169 53° Northeast 336 387 16,100  Level Atlanta Center
Tue 04:23:58 PM 32.7439 -85.8244 51° Northeast 341 392 17,700 1,550 Climbing Atlanta Center
Tue 04:24:58 PM 32.8036 -85.7292 53° Northeast 341 392 19,200 1,500 Climbing Atlanta Center
Tue 04:25:58 PM 32.8633 -85.6364 53° Northeast 346 398 20,700 1,550 Climbing Atlanta Center
Tue 04:26:58 PM 32.9272 -85.5386 52° Northeast 357 411 22,300 1,150 Climbing Atlanta Center
Tue 04:27:58 PM 32.9911 -85.4406 52° Northeast 367 422 23,000 750 Climbing Atlanta Center
Tue 04:28:58 PM 33.0589 -85.3350 53° Northeast 378 435 23,800 900 Climbing Atlanta Center
Tue 04:29:58 PM 33.1289 -85.2269 52° Northeast 403 464 24,800 1,050 Climbing Atlanta Center
Tue 04:30:58 PM 33.1967 -85.1186 53° Northeast 410 472 25,900 950 Climbing Atlanta Center
Tue 04:31:58 PM 33.2603 -85.0225 52° Northeast 410 472 26,700 950 Climbing Atlanta Center
Tue 04:32:58 PM 33.3278 -84.9139 53° Northeast 405 466 27,800 1,050 Climbing Atlanta Center
Tue 04:33:58 PM 33.3953 -84.8078 53° Northeast 405 466 28,800 600 Climbing Atlanta Center
Tue 04:34:58 PM 33.4669 -84.6936 53° Northeast 410 472 29,000 100 Climbing Atlanta Center
Tue 04:35:58 PM 33.5406 -84.5797 52° Northeast 419 482 29,000  Level Atlanta Center
Tue 04:36:58 PM 33.6183 -84.4528 54° Northeast 429 494 29,000  Level Atlanta Center
Tue 04:37:58 PM 33.6603 -84.3208 69° East 424 488 29,000  Level Atlanta Center
Tue 04:38:58 PM 33.7003 -84.1886 70° East 441 507 29,000  Level Atlanta Center
Tue 04:39:58 PM 33.7400 -84.0439 72° East 456 525 29,000  Level Atlanta Center
Tue 04:40:58 PM 33.7794 -83.8989 72° East 456 525 29,000  Level Atlanta Center
Tue 04:41:58 PM 33.8211 -83.7564 71° East 456 525 29,000 -150 Level Atlanta Center
Tue 04:42:58 PM 33.8583 -83.6161 72° East 445 512 28,700 -850 Descending Atlanta Center
Tue 04:43:58 PM 33.9036 -83.4606 71° East 445 512 27,300 -1,450 Descending Atlanta Center
Tue 04:44:58 PM 33.9383 -83.3228 73° East 439 505 25,800 -1,500 Descending Atlanta Center
Tue 04:45:58 PM 33.9853 -83.1894 67° East 433 498 24,300 -900 Descending Atlanta Center
Tue 04:46:58 PM 34.0450 -83.0661 60° Northeast 422 486 24,000 -150 Descending Atlanta Center
Tue 04:47:58 PM 34.1003 -82.9425 62° Northeast 416 479 24,000  Level Atlanta Center
Tue 04:48:58 PM 34.1575 -82.8189 61° Northeast 421 484 24,000  Level Atlanta Center
Tue 04:49:58 PM 34.2169 -82.6947 60° Northeast 421 484 24,000  Level Atlanta Center
Tue 04:50:58 PM 34.2678 -82.5783 62° Northeast 409 471 24,000  Level Atlanta Center
Tue 04:51:58 PM 34.3225 -82.4567 61° Northeast 402 463 24,000  Level Atlanta Center
Tue 04:52:58 PM 34.3772 -82.3400 60° Northeast 397 457 24,000 -450 Level Atlanta Center
Tue 04:53:58 PM 34.4319 -82.2156 62° Northeast 402 463 23,100 -1,200 Descending Atlanta Center
Tue 04:54:58 PM 34.4844 -82.0983 61° Northeast 397 457 21,600 -1,750 Descending Atlanta Center
Tue 04:55:58 PM 34.5328 -81.9914 61° Northeast 388 447 19,600 -2,000 Descending Atlanta Center
Tue 04:56:58 PM 34.5708 -81.9022 63° Northeast 354 407 17,600 -1,950 Descending Atlanta Center
Tue 04:57:58 PM 34.6150 -81.8075 60° Northeast 336 387 15,700 -1,950 Descending Atlanta Center
Tue 04:58:58 PM 34.6572 -81.7206 59° Northeast 304 350 13,700 -2,114 Descending Atlanta Center
Tue 04:59:26 PM 34.6811 -81.6619 64° Northeast 306 352 12,600 -1,600 Descending Atlanta Center
Tue 04:59:58 PM 34.6972 -81.6286 60° Northeast 304 350 12,100 -391 Descending Atlanta Center
Tue 05:00:58 PM 34.7372 -81.5439 60° Northeast 296 341 12,000 -50 Descending Atlanta Center
Tue 05:01:58 PM 34.7942 -81.4664 48° Northeast 296 341 12,000  Level Atlanta Center
Tue 05:02:58 PM 34.8572 -81.3861 46° Northeast 291 335 12,000 44 Level Atlanta Center
Tue 05:04:13 PM 34.9303 -81.2925 46° Northeast 299 344 12,100  Climbing Atlanta Center
Tue 05:04:58 PM 34.9708 -81.2406 46° Northeast 297 342 12,000  Descending Atlanta Center
Tue 05:05:14 PM 34.9869 -81.2197 47° Northeast 300 345 12,100  Climbing Atlanta Center
Tue 05:05:58 PM 35.0275 -81.1650 48° Northeast 297 342 12,000 -590 Descending Atlanta Center
Tue 05:06:15 PM 35.0436 -81.1442 47° Northeast 299 344 11,500 -1,600 Descending Atlanta Center
Tue 05:06:58 PM 35.0819 -81.0944 47° Northeast 297 342 10,400 -1,475 Descending Atlanta Center
Tue 05:07:16 PM 35.1006 -81.0786 35° Northeast 282 325 10,000 -1,100 Descending Atlanta Center
Tue 05:07:58 PM 35.1522 -81.0567 19° North 281 323 9,300 -984 Descending Atlanta Center
Tue 05:08:17 PM 35.1769 -81.0506 11° North 265 305 9,000 -1,000 Descending Atlanta Center
Tue 05:08:58 PM 35.2225 -81.0361 15° North 259 298 8,300 -1,065 Descending Atlanta Center
Tue 05:09:19 PM 35.2472 -81.0175 32° Northeast 258 297 7,900 -1,481 Descending Atlanta Center
Tue 05:10:19 PM 35.2894 -80.9522 52° Northeast 250 288 6,300 -1,339 Descending Atlanta Center
Tue 05:11:20 PM 35.3336 -80.8894 49° Northeast 233 268 5,200 -1,082 Descending Atlanta Center
Tue 05:12:21 PM 35.3822 -80.8367 42° Northeast 232 267 4,100 -541 Descending Atlanta Center
Tue 05:13:22 PM 35.3686 -80.7889 109° East 182 209 4,100 -49 Level Atlanta Center
Tue 05:14:23 PM 35.3233 -80.8111 202° Southwest 172 198 4,000 -639 Descending Atlanta Center
Tue 05:15:24 PM 35.2867 -80.8481 219° Southwest 173 199 2,800 -1,082 Descending Atlanta Center
Tue 05:16:25 PM 35.2542 -80.8850 223° Southwest 137 158 1,800 -843 Descending Atlanta Center
Tue 05:17:25 PM 35.2322 -80.9214 234° Southwest 132 152 1,100 -700 Descending Atlanta Center
Tue 05:19:00 PM 35.2000 -80.9333 197° South  Level FlightAware Approximate
Tue 05:26:00 PM 35.2137 -80.9491 197° South  Level Estimated

Login

Don't have an account? Register now (free) for customized features, flight alerts, and more!